sensor_id;sensor_type;location;lat;lon;timestamp;temperature;humidity
33105;DHT22;19476;51.448;6.674;2022-07-21T00:01:54;26.70;51.30
33105;DHT22;19476;51.448;6.674;2022-07-21T00:04:20;26.60;51.30
33105;DHT22;19476;51.448;6.674;2022-07-21T00:06:47;26.70;51.30
33105;DHT22;19476;51.448;6.674;2022-07-21T00:09:13;26.70;51.40
33105;DHT22;19476;51.448;6.674;2022-07-21T00:11:40;26.70;51.40
33105;DHT22;19476;51.448;6.674;2022-07-21T00:14:08;26.70;51.40
33105;DHT22;19476;51.448;6.674;2022-07-21T00:16:37;26.70;51.60
33105;DHT22;19476;51.448;6.674;2022-07-21T00:19:04;26.70;52.00
33105;DHT22;19476;51.448;6.674;2022-07-21T00:21:30;26.70;51.60
33105;DHT22;19476;51.448;6.674;2022-07-21T00:23:56;26.60;51.80
33105;DHT22;19476;51.448;6.674;2022-07-21T00:26:22;26.60;52.10
33105;DHT22;19476;51.448;6.674;2022-07-21T00:28:49;26.60;52.20
33105;DHT22;19476;51.448;6.674;2022-07-21T00:31:15;26.60;52.30
33105;DHT22;19476;51.448;6.674;2022-07-21T00:33:41;26.60;52.50
33105;DHT22;19476;51.448;6.674;2022-07-21T00:36:08;26.60;52.50
33105;DHT22;19476;51.448;6.674;2022-07-21T00:38:34;26.60;52.50
33105;DHT22;19476;51.448;6.674;2022-07-21T00:41:00;26.60;52.30
33105;DHT22;19476;51.448;6.674;2022-07-21T00:43:26;26.60;52.10
33105;DHT22;19476;51.448;6.674;2022-07-21T00:45:53;26.60;52.00
33105;DHT22;19476;51.448;6.674;2022-07-21T00:48:19;26.60;52.10
33105;DHT22;19476;51.448;6.674;2022-07-21T00:50:46;26.60;52.30
33105;DHT22;19476;51.448;6.674;2022-07-21T00:53:12;26.50;52.30
33105;DHT22;19476;51.448;6.674;2022-07-21T00:55:42;26.50;52.20
33105;DHT22;19476;51.448;6.674;2022-07-21T00:58:08;26.50;52.60
33105;DHT22;19476;51.448;6.674;2022-07-21T01:00:34;26.40;52.20
33105;DHT22;19476;51.448;6.674;2022-07-21T01:03:00;26.40;52.40
33105;DHT22;19476;51.448;6.674;2022-07-21T01:05:26;26.40;52.50
33105;DHT22;19476;51.448;6.674;2022-07-21T01:07:53;26.40;52.60
33105;DHT22;19476;51.448;6.674;2022-07-21T01:10:24;26.40;52.70
33105;DHT22;19476;51.448;6.674;2022-07-21T01:12:51;26.30;53.00
33105;DHT22;19476;51.448;6.674;2022-07-21T01:15:18;26.30;52.50
33105;DHT22;19476;51.448;6.674;2022-07-21T01:17:45;26.30;52.80
33105;DHT22;19476;51.448;6.674;2022-07-21T01:20:18;26.30;53.10
33105;DHT22;19476;51.448;6.674;2022-07-21T01:22:46;26.20;53.20
33105;DHT22;19476;51.448;6.674;2022-07-21T01:25:34;26.20;53.30
33105;DHT22;19476;51.448;6.674;2022-07-21T01:28:00;26.10;53.70
33105;DHT22;19476;51.448;6.674;2022-07-21T01:30:26;26.10;53.30
33105;DHT22;19476;51.448;6.674;2022-07-21T01:32:52;26.10;54.00
33105;DHT22;19476;51.448;6.674;2022-07-21T01:35:18;26.10;53.70
33105;DHT22;19476;51.448;6.674;2022-07-21T01:37:46;26.10;53.80
33105;DHT22;19476;51.448;6.674;2022-07-21T01:40:14;26.10;53.90
33105;DHT22;19476;51.448;6.674;2022-07-21T01:42:59;26.00;54.00
33105;DHT22;19476;51.448;6.674;2022-07-21T01:45:25;26.00;53.90
33105;DHT22;19476;51.448;6.674;2022-07-21T01:47:51;26.00;54.00
33105;DHT22;19476;51.448;6.674;2022-07-21T01:50:17;26.00;54.00
33105;DHT22;19476;51.448;6.674;2022-07-21T01:52:46;26.00;54.00
33105;DHT22;19476;51.448;6.674;2022-07-21T01:55:13;25.90;53.90
33105;DHT22;19476;51.448;6.674;2022-07-21T01:57:39;25.90;54.20
33105;DHT22;19476;51.448;6.674;2022-07-21T02:00:05;25.80;54.00
33105;DHT22;19476;51.448;6.674;2022-07-21T02:02:31;25.80;54.10
33105;DHT22;19476;51.448;6.674;2022-07-21T02:04:57;25.80;54.10
33105;DHT22;19476;51.448;6.674;2022-07-21T02:08:17;25.80;54.20
33105;DHT22;19476;51.448;6.674;2022-07-21T02:11:22;25.70;54.90
33105;DHT22;19476;51.448;6.674;2022-07-21T02:13:58;25.70;55.00
33105;DHT22;19476;51.448;6.674;2022-07-21T02:16:24;25.70;54.70
33105;DHT22;19476;51.448;6.674;2022-07-21T02:18:50;25.60;54.20
33105;DHT22;19476;51.448;6.674;2022-07-21T02:21:16;25.60;54.50
33105;DHT22;19476;51.448;6.674;2022-07-21T02:23:42;25.60;54.50
33105;DHT22;19476;51.448;6.674;2022-07-21T02:26:08;25.60;54.50
33105;DHT22;19476;51.448;6.674;2022-07-21T02:28:34;25.50;54.60
33105;DHT22;19476;51.448;6.674;2022-07-21T02:31:00;25.50;54.90
33105;DHT22;19476;51.448;6.674;2022-07-21T02:33:26;25.50;54.90
33105;DHT22;19476;51.448;6.674;2022-07-21T02:35:51;25.50;54.90
33105;DHT22;19476;51.448;6.674;2022-07-21T02:38:18;25.40;54.90
33105;DHT22;19476;51.448;6.674;2022-07-21T02:40:43;25.40;55.00
33105;DHT22;19476;51.448;6.674;2022-07-21T02:43:09;25.40;55.20
33105;DHT22;19476;51.448;6.674;2022-07-21T02:45:35;25.40;55.30
33105;DHT22;19476;51.448;6.674;2022-07-21T02:48:08;25.40;55.40
33105;DHT22;19476;51.448;6.674;2022-07-21T02:50:37;25.30;56.10
33105;DHT22;19476;51.448;6.674;2022-07-21T02:53:07;25.30;55.50
33105;DHT22;19476;51.448;6.674;2022-07-21T02:55:33;25.30;55.80
33105;DHT22;19476;51.448;6.674;2022-07-21T02:58:06;25.30;55.30
33105;DHT22;19476;51.448;6.674;2022-07-21T03:00:35;25.30;56.20
33105;DHT22;19476;51.448;6.674;2022-07-21T03:03:01;25.30;55.90
33105;DHT22;19476;51.448;6.674;2022-07-21T03:05:27;25.30;55.40
33105;DHT22;19476;51.448;6.674;2022-07-21T03:07:52;25.20;55.40
33105;DHT22;19476;51.448;6.674;2022-07-21T03:10:18;25.20;55.50
33105;DHT22;19476;51.448;6.674;2022-07-21T03:12:44;25.20;55.60
33105;DHT22;19476;51.448;6.674;2022-07-21T03:15:10;25.20;55.60
33105;DHT22;19476;51.448;6.674;2022-07-21T03:17:36;25.10;55.70
33105;DHT22;19476;51.448;6.674;2022-07-21T03:20:03;25.20;55.80
33105;DHT22;19476;51.448;6.674;2022-07-21T03:22:29;25.20;56.10
33105;DHT22;19476;51.448;6.674;2022-07-21T03:24:55;25.10;55.70
33105;DHT22;19476;51.448;6.674;2022-07-21T03:27:21;25.10;55.60
33105;DHT22;19476;51.448;6.674;2022-07-21T03:29:47;25.10;55.70
33105;DHT22;19476;51.448;6.674;2022-07-21T03:32:13;25.10;55.60
33105;DHT22;19476;51.448;6.674;2022-07-21T03:34:38;25.10;55.60
33105;DHT22;19476;51.448;6.674;2022-07-21T03:37:05;25.10;55.70
33105;DHT22;19476;51.448;6.674;2022-07-21T03:39:30;25.00;55.70
33105;DHT22;19476;51.448;6.674;2022-07-21T03:41:56;25.00;55.70
33105;DHT22;19476;51.448;6.674;2022-07-21T03:44:22;25.00;55.70
33105;DHT22;19476;51.448;6.674;2022-07-21T03:46:48;25.00;55.70
33105;DHT22;19476;51.448;6.674;2022-07-21T03:49:14;25.00;56.40
33105;DHT22;19476;51.448;6.674;2022-07-21T03:51:40;24.90;55.90
33105;DHT22;19476;51.448;6.674;2022-07-21T03:54:06;24.90;56.10
33105;DHT22;19476;51.448;6.674;2022-07-21T03:56:32;24.90;56.00
33105;DHT22;19476;51.448;6.674;2022-07-21T03:58:58;24.90;56.10
33105;DHT22;19476;51.448;6.674;2022-07-21T04:01:23;24.80;56.20
33105;DHT22;19476;51.448;6.674;2022-07-21T04:03:49;24.90;56.30
33105;DHT22;19476;51.448;6.674;2022-07-21T04:06:15;24.80;56.20
33105;DHT22;19476;51.448;6.674;2022-07-21T04:08:41;24.90;56.20
33105;DHT22;19476;51.448;6.674;2022-07-21T04:11:07;24.80;56.30
33105;DHT22;19476;51.448;6.674;2022-07-21T04:13:33;24.80;56.30
33105;DHT22;19476;51.448;6.674;2022-07-21T04:15:59;24.80;56.50
33105;DHT22;19476;51.448;6.674;2022-07-21T04:18:24;24.80;56.40
33105;DHT22;19476;51.448;6.674;2022-07-21T04:20:50;24.80;56.50
33105;DHT22;19476;51.448;6.674;2022-07-21T04:23:16;24.80;56.50
33105;DHT22;19476;51.448;6.674;2022-07-21T04:25:42;24.80;56.60
33105;DHT22;19476;51.448;6.674;2022-07-21T04:28:08;24.80;56.60
33105;DHT22;19476;51.448;6.674;2022-07-21T04:30:34;24.80;56.70
33105;DHT22;19476;51.448;6.674;2022-07-21T04:33:00;24.80;56.70
33105;DHT22;19476;51.448;6.674;2022-07-21T04:35:26;24.80;56.70
33105;DHT22;19476;51.448;6.674;2022-07-21T04:37:51;24.80;56.70
33105;DHT22;19476;51.448;6.674;2022-07-21T04:40:17;24.80;56.70
33105;DHT22;19476;51.448;6.674;2022-07-21T04:42:44;24.80;56.80
33105;DHT22;19476;51.448;6.674;2022-07-21T04:45:11;24.80;56.80
33105;DHT22;19476;51.448;6.674;2022-07-21T04:47:47;24.80;56.90
33105;DHT22;19476;51.448;6.674;2022-07-21T04:50:15;24.80;57.50
33105;DHT22;19476;51.448;6.674;2022-07-21T04:52:41;24.80;56.90
33105;DHT22;19476;51.448;6.674;2022-07-21T04:55:08;24.80;56.90
33105;DHT22;19476;51.448;6.674;2022-07-21T04:57:39;24.70;56.90
33105;DHT22;19476;51.448;6.674;2022-07-21T05:00:06;24.70;57.20
33105;DHT22;19476;51.448;6.674;2022-07-21T05:02:32;24.70;57.00
33105;DHT22;19476;51.448;6.674;2022-07-21T05:04:59;24.70;56.90
33105;DHT22;19476;51.448;6.674;2022-07-21T05:07:24;24.60;56.90
33105;DHT22;19476;51.448;6.674;2022-07-21T05:09:50;24.60;57.00
33105;DHT22;19476;51.448;6.674;2022-07-21T05:12:16;24.60;57.00
33105;DHT22;19476;51.448;6.674;2022-07-21T05:14:42;24.60;57.10
33105;DHT22;19476;51.448;6.674;2022-07-21T05:17:08;24.60;57.10
33105;DHT22;19476;51.448;6.674;2022-07-21T05:19:34;24.60;57.10
33105;DHT22;19476;51.448;6.674;2022-07-21T05:21:59;24.60;57.10
33105;DHT22;19476;51.448;6.674;2022-07-21T05:24:25;24.70;57.10
33105;DHT22;19476;51.448;6.674;2022-07-21T05:26:51;24.70;57.10
33105;DHT22;19476;51.448;6.674;2022-07-21T05:29:17;24.70;57.10
33105;DHT22;19476;51.448;6.674;2022-07-21T05:31:43;24.70;57.00
33105;DHT22;19476;51.448;6.674;2022-07-21T05:34:10;24.70;56.80
33105;DHT22;19476;51.448;6.674;2022-07-21T05:36:36;24.70;56.80
33105;DHT22;19476;51.448;6.674;2022-07-21T05:39:02;24.70;56.80
33105;DHT22;19476;51.448;6.674;2022-07-21T05:41:28;24.70;56.90
33105;DHT22;19476;51.448;6.674;2022-07-21T05:43:54;24.70;56.80
33105;DHT22;19476;51.448;6.674;2022-07-21T05:46:20;24.70;56.80
33105;DHT22;19476;51.448;6.674;2022-07-21T05:48:45;24.70;56.80
33105;DHT22;19476;51.448;6.674;2022-07-21T05:51:12;24.70;56.90
33105;DHT22;19476;51.448;6.674;2022-07-21T05:53:37;24.60;56.80
33105;DHT22;19476;51.448;6.674;2022-07-21T05:56:03;24.70;56.90
33105;DHT22;19476;51.448;6.674;2022-07-21T05:58:29;24.70;56.90
33105;DHT22;19476;51.448;6.674;2022-07-21T06:00:55;24.70;56.70
33105;DHT22;19476;51.448;6.674;2022-07-21T06:03:46;24.60;56.80
33105;DHT22;19476;51.448;6.674;2022-07-21T06:06:14;24.60;56.90
33105;DHT22;19476;51.448;6.674;2022-07-21T06:08:42;24.60;56.80
33105;DHT22;19476;51.448;6.674;2022-07-21T06:11:10;24.60;56.80
33105;DHT22;19476;51.448;6.674;2022-07-21T06:13:36;24.70;56.90
33105;DHT22;19476;51.448;6.674;2022-07-21T06:16:03;24.70;56.90
33105;DHT22;19476;51.448;6.674;2022-07-21T06:18:29;24.70;56.70
33105;DHT22;19476;51.448;6.674;2022-07-21T06:20:55;24.70;56.70
33105;DHT22;19476;51.448;6.674;2022-07-21T06:23:21;24.70;56.60
33105;DHT22;19476;51.448;6.674;2022-07-21T06:25:48;24.70;56.70
33105;DHT22;19476;51.448;6.674;2022-07-21T06:28:14;24.70;56.70
33105;DHT22;19476;51.448;6.674;2022-07-21T06:30:40;24.80;56.70
33105;DHT22;19476;51.448;6.674;2022-07-21T06:33:06;24.80;56.60
33105;DHT22;19476;51.448;6.674;2022-07-21T06:35:32;24.80;56.60
33105;DHT22;19476;51.448;6.674;2022-07-21T06:37:58;24.90;56.50
33105;DHT22;19476;51.448;6.674;2022-07-21T06:40:24;24.90;56.30
33105;DHT22;19476;51.448;6.674;2022-07-21T06:42:50;25.00;56.30
33105;DHT22;19476;51.448;6.674;2022-07-21T06:45:16;24.90;56.20
33105;DHT22;19476;51.448;6.674;2022-07-21T06:47:42;25.00;56.10
33105;DHT22;19476;51.448;6.674;2022-07-21T06:50:08;25.00;56.10
33105;DHT22;19476;51.448;6.674;2022-07-21T06:52:35;24.90;56.00
33105;DHT22;19476;51.448;6.674;2022-07-21T06:55:05;25.00;55.90
33105;DHT22;19476;51.448;6.674;2022-07-21T06:57:32;25.00;55.90
33105;DHT22;19476;51.448;6.674;2022-07-21T06:59:58;25.00;55.80
33105;DHT22;19476;51.448;6.674;2022-07-21T07:02:24;25.00;55.60
33105;DHT22;19476;51.448;6.674;2022-07-21T07:04:50;25.00;55.60
33105;DHT22;19476;51.448;6.674;2022-07-21T07:07:16;25.00;55.60
33105;DHT22;19476;51.448;6.674;2022-07-21T07:09:42;25.10;55.70
33105;DHT22;19476;51.448;6.674;2022-07-21T07:12:08;25.10;55.50
33105;DHT22;19476;51.448;6.674;2022-07-21T07:14:35;25.10;55.30
33105;DHT22;19476;51.448;6.674;2022-07-21T07:17:02;25.20;55.40
33105;DHT22;19476;51.448;6.674;2022-07-21T07:19:29;25.10;55.40
33105;DHT22;19476;51.448;6.674;2022-07-21T07:21:55;25.20;55.40
33105;DHT22;19476;51.448;6.674;2022-07-21T07:24:21;25.20;55.20
33105;DHT22;19476;51.448;6.674;2022-07-21T07:26:47;25.20;55.10
33105;DHT22;19476;51.448;6.674;2022-07-21T07:29:13;25.30;55.10
33105;DHT22;19476;51.448;6.674;2022-07-21T07:31:40;25.30;54.80
33105;DHT22;19476;51.448;6.674;2022-07-21T07:34:06;25.40;54.50
33105;DHT22;19476;51.448;6.674;2022-07-21T07:36:32;25.40;54.40
33105;DHT22;19476;51.448;6.674;2022-07-21T07:38:59;25.40;54.30
33105;DHT22;19476;51.448;6.674;2022-07-21T07:41:26;25.40;54.20
33105;DHT22;19476;51.448;6.674;2022-07-21T07:43:52;25.40;54.00
33105;DHT22;19476;51.448;6.674;2022-07-21T07:46:19;25.40;54.00
33105;DHT22;19476;51.448;6.674;2022-07-21T07:48:45;25.40;54.60
33105;DHT22;19476;51.448;6.674;2022-07-21T07:51:14;25.50;54.00
33105;DHT22;19476;51.448;6.674;2022-07-21T07:53:40;25.50;53.90
33105;DHT22;19476;51.448;6.674;2022-07-21T07:56:07;25.50;53.60
33105;DHT22;19476;51.448;6.674;2022-07-21T07:58:34;25.60;53.60
33105;DHT22;19476;51.448;6.674;2022-07-21T08:01:00;25.60;53.50
33105;DHT22;19476;51.448;6.674;2022-07-21T08:03:26;25.60;53.40
33105;DHT22;19476;51.448;6.674;2022-07-21T08:05:54;25.60;53.10
33105;DHT22;19476;51.448;6.674;2022-07-21T08:08:21;25.60;52.80
33105;DHT22;19476;51.448;6.674;2022-07-21T08:10:50;25.60;52.80
33105;DHT22;19476;51.448;6.674;2022-07-21T08:13:16;25.60;52.90
33105;DHT22;19476;51.448;6.674;2022-07-21T08:15:44;25.60;52.90
33105;DHT22;19476;51.448;6.674;2022-07-21T08:18:10;25.60;53.10
33105;DHT22;19476;51.448;6.674;2022-07-21T08:20:36;25.40;52.90
33105;DHT22;19476;51.448;6.674;2022-07-21T08:23:03;25.60;53.10
33105;DHT22;19476;51.448;6.674;2022-07-21T08:25:29;25.60;53.10
33105;DHT22;19476;51.448;6.674;2022-07-21T08:27:55;25.70;53.10
33105;DHT22;19476;51.448;6.674;2022-07-21T08:30:21;25.70;53.00
33105;DHT22;19476;51.448;6.674;2022-07-21T08:32:47;25.80;53.00
33105;DHT22;19476;51.448;6.674;2022-07-21T08:35:14;25.80;52.30
33105;DHT22;19476;51.448;6.674;2022-07-21T08:37:40;25.90;52.30
33105;DHT22;19476;51.448;6.674;2022-07-21T08:40:11;26.00;52.20
33105;DHT22;19476;51.448;6.674;2022-07-21T08:42:37;26.10;51.90
33105;DHT22;19476;51.448;6.674;2022-07-21T08:45:04;26.10;51.50
33105;DHT22;19476;51.448;6.674;2022-07-21T08:47:31;26.20;51.40
33105;DHT22;19476;51.448;6.674;2022-07-21T08:49:58;26.20;51.30
33105;DHT22;19476;51.448;6.674;2022-07-21T08:52:24;26.20;51.10
33105;DHT22;19476;51.448;6.674;2022-07-21T08:54:50;26.30;51.10
33105;DHT22;19476;51.448;6.674;2022-07-21T08:57:16;26.30;51.10
33105;DHT22;19476;51.448;6.674;2022-07-21T08:59:43;26.40;51.20
33105;DHT22;19476;51.448;6.674;2022-07-21T09:02:30;26.40;51.00
33105;DHT22;19476;51.448;6.674;2022-07-21T09:04:56;26.50;51.00
33105;DHT22;19476;51.448;6.674;2022-07-21T09:07:23;26.50;51.00
33105;DHT22;19476;51.448;6.674;2022-07-21T09:10:00;26.50;50.60
33105;DHT22;19476;51.448;6.674;2022-07-21T09:12:28;26.60;50.80
33105;DHT22;19476;51.448;6.674;2022-07-21T09:15:15;26.60;50.60
33105;DHT22;19476;51.448;6.674;2022-07-21T09:17:41;26.60;50.10
33105;DHT22;19476;51.448;6.674;2022-07-21T09:20:23;26.70;50.10
33105;DHT22;19476;51.448;6.674;2022-07-21T09:23:10;26.70;49.20
33105;DHT22;19476;51.448;6.674;2022-07-21T09:25:48;26.80;49.50
33105;DHT22;19476;51.448;6.674;2022-07-21T09:28:27;26.70;49.50
33105;DHT22;19476;51.448;6.674;2022-07-21T09:31:08;26.70;49.40
33105;DHT22;19476;51.448;6.674;2022-07-21T09:33:40;26.80;49.40
33105;DHT22;19476;51.448;6.674;2022-07-21T09:36:09;26.80;49.40
33105;DHT22;19476;51.448;6.674;2022-07-21T09:38:38;26.80;49.20
33105;DHT22;19476;51.448;6.674;2022-07-21T09:41:25;26.80;49.20
33105;DHT22;19476;51.448;6.674;2022-07-21T09:43:56;26.80;49.30
33105;DHT22;19476;51.448;6.674;2022-07-21T09:46:24;26.70;49.10
33105;DHT22;19476;51.448;6.674;2022-07-21T09:48:52;26.70;49.20
33105;DHT22;19476;51.448;6.674;2022-07-21T09:51:24;26.60;49.20
33105;DHT22;19476;51.448;6.674;2022-07-21T09:53:55;26.60;49.50
33105;DHT22;19476;51.448;6.674;2022-07-21T09:56:22;26.60;49.50
33105;DHT22;19476;51.448;6.674;2022-07-21T09:58:50;26.60;49.60
33105;DHT22;19476;51.448;6.674;2022-07-21T10:01:17;26.50;49.70
33105;DHT22;19476;51.448;6.674;2022-07-21T10:03:45;26.50;49.90
33105;DHT22;19476;51.448;6.674;2022-07-21T10:06:12;26.40;50.00
33105;DHT22;19476;51.448;6.674;2022-07-21T10:08:40;26.40;50.20
33105;DHT22;19476;51.448;6.674;2022-07-21T10:11:08;26.30;50.40
33105;DHT22;19476;51.448;6.674;2022-07-21T10:13:34;26.20;50.90
33105;DHT22;19476;51.448;6.674;2022-07-21T10:16:00;26.20;51.10
33105;DHT22;19476;51.448;6.674;2022-07-21T10:18:28;26.10;51.40
33105;DHT22;19476;51.448;6.674;2022-07-21T10:21:01;26.10;52.20
33105;DHT22;19476;51.448;6.674;2022-07-21T10:23:35;26.00;52.60
33105;DHT22;19476;51.448;6.674;2022-07-21T10:26:03;26.00;53.10
33105;DHT22;19476;51.448;6.674;2022-07-21T10:28:32;26.00;52.90
33105;DHT22;19476;51.448;6.674;2022-07-21T10:30:59;25.90;53.10
33105;DHT22;19476;51.448;6.674;2022-07-21T10:41:41;25.80;54.20
33105;DHT22;19476;51.448;6.674;2022-07-21T10:47:12;25.80;54.70
33105;DHT22;19476;51.448;6.674;2022-07-21T10:49:48;25.80;55.10
33105;DHT22;19476;51.448;6.674;2022-07-21T10:57:43;25.60;55.40
33105;DHT22;19476;51.448;6.674;2022-07-21T11:02:48;25.50;56.10
33105;DHT22;19476;51.448;6.674;2022-07-21T11:05:14;25.40;55.90
33105;DHT22;19476;51.448;6.674;2022-07-21T11:08:09;25.40;56.00
33105;DHT22;19476;51.448;6.674;2022-07-21T11:10:37;25.40;57.30
33105;DHT22;19476;51.448;6.674;2022-07-21T11:13:03;25.30;56.70
33105;DHT22;19476;51.448;6.674;2022-07-21T11:15:48;25.30;57.00
33105;DHT22;19476;51.448;6.674;2022-07-21T11:18:24;25.30;58.10
33105;DHT22;19476;51.448;6.674;2022-07-21T11:21:13;25.20;57.80
33105;DHT22;19476;51.448;6.674;2022-07-21T11:23:46;25.20;58.70
33105;DHT22;19476;51.448;6.674;2022-07-21T11:26:14;25.20;57.60
33105;DHT22;19476;51.448;6.674;2022-07-21T11:28:41;25.20;57.70
33105;DHT22;19476;51.448;6.674;2022-07-21T11:31:17;25.20;57.80
33105;DHT22;19476;51.448;6.674;2022-07-21T11:33:47;25.20;58.60
33105;DHT22;19476;51.448;6.674;2022-07-21T11:36:27;25.20;58.10
33105;DHT22;19476;51.448;6.674;2022-07-21T11:41:27;25.20;58.50
33105;DHT22;19476;51.448;6.674;2022-07-21T11:43:52;25.10;57.90
33105;DHT22;19476;51.448;6.674;2022-07-21T11:46:19;25.10;58.00
33105;DHT22;19476;51.448;6.674;2022-07-21T11:48:46;25.10;58.30
33105;DHT22;19476;51.448;6.674;2022-07-21T11:51:11;25.10;58.20
33105;DHT22;19476;51.448;6.674;2022-07-21T11:53:44;25.10;58.50
33105;DHT22;19476;51.448;6.674;2022-07-21T11:56:16;25.00;59.60
33105;DHT22;19476;51.448;6.674;2022-07-21T11:58:43;25.00;59.30
33105;DHT22;19476;51.448;6.674;2022-07-21T12:01:09;25.00;59.00
33105;DHT22;19476;51.448;6.674;2022-07-21T12:03:49;25.10;59.20
33105;DHT22;19476;51.448;6.674;2022-07-21T12:06:16;25.10;60.50
33105;DHT22;19476;51.448;6.674;2022-07-21T12:08:44;25.10;59.70
33105;DHT22;19476;51.448;6.674;2022-07-21T12:11:11;25.10;59.80
33105;DHT22;19476;51.448;6.674;2022-07-21T12:13:58;25.20;60.40
33105;DHT22;19476;51.448;6.674;2022-07-21T12:16:25;25.20;60.10
33105;DHT22;19476;51.448;6.674;2022-07-21T12:19:10;25.30;59.60
33105;DHT22;19476;51.448;6.674;2022-07-21T12:21:47;25.20;60.10
33105;DHT22;19476;51.448;6.674;2022-07-21T12:24:16;25.30;60.40
33105;DHT22;19476;51.448;6.674;2022-07-21T12:26:42;25.20;59.30
33105;DHT22;19476;51.448;6.674;2022-07-21T12:29:08;25.30;59.40
33105;DHT22;19476;51.448;6.674;2022-07-21T12:31:36;25.30;59.50
33105;DHT22;19476;51.448;6.674;2022-07-21T12:34:14;25.20;59.50
33105;DHT22;19476;51.448;6.674;2022-07-21T12:36:45;25.20;59.40
33105;DHT22;19476;51.448;6.674;2022-07-21T12:39:23;25.20;59.30
33105;DHT22;19476;51.448;6.674;2022-07-21T12:42:26;25.10;58.60
33105;DHT22;19476;51.448;6.674;2022-07-21T12:44:53;25.00;58.40
33105;DHT22;19476;51.448;6.674;2022-07-21T12:47:20;24.90;58.40
33105;DHT22;19476;51.448;6.674;2022-07-21T12:49:58;24.80;58.60
33105;DHT22;19476;51.448;6.674;2022-07-21T12:52:26;24.70;59.30
33105;DHT22;19476;51.448;6.674;2022-07-21T12:54:53;24.70;58.90
33105;DHT22;19476;51.448;6.674;2022-07-21T12:57:19;24.60;58.90
33105;DHT22;19476;51.448;6.674;2022-07-21T12:59:45;24.60;59.00
33105;DHT22;19476;51.448;6.674;2022-07-21T13:02:11;24.50;59.10
33105;DHT22;19476;51.448;6.674;2022-07-21T13:04:37;24.50;59.10
33105;DHT22;19476;51.448;6.674;2022-07-21T13:07:03;24.40;59.20
33105;DHT22;19476;51.448;6.674;2022-07-21T13:09:29;24.40;59.50
33105;DHT22;19476;51.448;6.674;2022-07-21T13:11:54;24.30;59.50
33105;DHT22;19476;51.448;6.674;2022-07-21T13:14:20;24.30;59.80
33105;DHT22;19476;51.448;6.674;2022-07-21T13:16:46;24.30;59.20
33105;DHT22;19476;51.448;6.674;2022-07-21T13:19:12;24.20;59.20
33105;DHT22;19476;51.448;6.674;2022-07-21T13:21:40;24.20;59.30
33105;DHT22;19476;51.448;6.674;2022-07-21T13:24:06;24.20;59.40
33105;DHT22;19476;51.448;6.674;2022-07-21T13:26:32;24.10;59.50
33105;DHT22;19476;51.448;6.674;2022-07-21T13:28:58;24.10;59.60
33105;DHT22;19476;51.448;6.674;2022-07-21T13:31:26;24.00;59.50
33105;DHT22;19476;51.448;6.674;2022-07-21T13:33:52;24.00;59.60
33105;DHT22;19476;51.448;6.674;2022-07-21T13:36:18;24.00;59.80
33105;DHT22;19476;51.448;6.674;2022-07-21T13:38:44;23.90;60.00
33105;DHT22;19476;51.448;6.674;2022-07-21T13:41:10;24.00;60.30
33105;DHT22;19476;51.448;6.674;2022-07-21T13:43:37;23.90;60.40
33105;DHT22;19476;51.448;6.674;2022-07-21T13:46:03;23.90;60.60
33105;DHT22;19476;51.448;6.674;2022-07-21T13:48:29;23.90;60.60
33105;DHT22;19476;51.448;6.674;2022-07-21T13:50:58;23.80;60.60
33105;DHT22;19476;51.448;6.674;2022-07-21T13:53:27;23.80;60.70
33105;DHT22;19476;51.448;6.674;2022-07-21T13:55:53;23.80;60.80
33105;DHT22;19476;51.448;6.674;2022-07-21T13:58:19;23.80;60.90
33105;DHT22;19476;51.448;6.674;2022-07-21T14:00:45;23.70;61.10
33105;DHT22;19476;51.448;6.674;2022-07-21T14:03:10;23.70;61.00
33105;DHT22;19476;51.448;6.674;2022-07-21T14:05:37;23.70;61.00
33105;DHT22;19476;51.448;6.674;2022-07-21T14:08:03;23.70;61.10
33105;DHT22;19476;51.448;6.674;2022-07-21T14:10:29;23.70;61.00
33105;DHT22;19476;51.448;6.674;2022-07-21T14:12:55;23.70;61.00
33105;DHT22;19476;51.448;6.674;2022-07-21T14:15:22;23.70;60.90
33105;DHT22;19476;51.448;6.674;2022-07-21T14:17:48;23.70;61.10
33105;DHT22;19476;51.448;6.674;2022-07-21T14:20:13;23.70;61.50
33105;DHT22;19476;51.448;6.674;2022-07-21T14:22:39;23.70;60.90
33105;DHT22;19476;51.448;6.674;2022-07-21T14:25:07;23.70;60.90
33105;DHT22;19476;51.448;6.674;2022-07-21T14:27:47;23.70;61.10
33105;DHT22;19476;51.448;6.674;2022-07-21T14:30:13;23.70;61.00
33105;DHT22;19476;51.448;6.674;2022-07-21T14:32:40;23.70;60.90
33105;DHT22;19476;51.448;6.674;2022-07-21T14:35:06;23.70;61.00
33105;DHT22;19476;51.448;6.674;2022-07-21T14:37:32;23.70;60.90
33105;DHT22;19476;51.448;6.674;2022-07-21T14:39:58;23.70;61.00
33105;DHT22;19476;51.448;6.674;2022-07-21T14:42:24;23.70;60.70
33105;DHT22;19476;51.448;6.674;2022-07-21T14:44:50;23.60;60.70
33105;DHT22;19476;51.448;6.674;2022-07-21T14:47:16;23.60;60.90
33105;DHT22;19476;51.448;6.674;2022-07-21T14:49:43;23.60;61.10
33105;DHT22;19476;51.448;6.674;2022-07-21T14:52:08;23.60;61.20
33105;DHT22;19476;51.448;6.674;2022-07-21T14:54:35;23.60;61.10
33105;DHT22;19476;51.448;6.674;2022-07-21T14:57:02;23.70;61.20
33105;DHT22;19476;51.448;6.674;2022-07-21T14:59:28;23.70;61.10
33105;DHT22;19476;51.448;6.674;2022-07-21T15:01:54;23.70;61.20
33105;DHT22;19476;51.448;6.674;2022-07-21T15:04:19;23.70;61.20
33105;DHT22;19476;51.448;6.674;2022-07-21T15:06:47;23.70;61.20
33105;DHT22;19476;51.448;6.674;2022-07-21T15:09:14;23.70;61.20
33105;DHT22;19476;51.448;6.674;2022-07-21T15:11:42;23.70;61.30
33105;DHT22;19476;51.448;6.674;2022-07-21T15:14:09;23.70;61.20
33105;DHT22;19476;51.448;6.674;2022-07-21T15:16:34;23.80;61.20
33105;DHT22;19476;51.448;6.674;2022-07-21T15:19:01;23.80;61.10
33105;DHT22;19476;51.448;6.674;2022-07-21T15:21:26;23.90;61.00
33105;DHT22;19476;51.448;6.674;2022-07-21T15:23:52;23.80;60.80
33105;DHT22;19476;51.448;6.674;2022-07-21T15:26:18;23.80;60.80
33105;DHT22;19476;51.448;6.674;2022-07-21T15:28:44;23.80;60.90
33105;DHT22;19476;51.448;6.674;2022-07-21T15:31:10;23.80;61.00
33105;DHT22;19476;51.448;6.674;2022-07-21T15:33:36;23.70;61.00
33105;DHT22;19476;51.448;6.674;2022-07-21T15:36:03;23.70;60.90
33105;DHT22;19476;51.448;6.674;2022-07-21T15:38:29;23.70;61.00
33105;DHT22;19476;51.448;6.674;2022-07-21T15:40:55;23.70;61.10
33105;DHT22;19476;51.448;6.674;2022-07-21T15:43:21;23.70;61.20
33105;DHT22;19476;51.448;6.674;2022-07-21T15:45:48;23.70;61.30
33105;DHT22;19476;51.448;6.674;2022-07-21T15:48:13;23.60;61.30
33105;DHT22;19476;51.448;6.674;2022-07-21T15:50:39;23.60;61.30
33105;DHT22;19476;51.448;6.674;2022-07-21T15:53:07;23.60;61.40
33105;DHT22;19476;51.448;6.674;2022-07-21T15:55:33;23.60;61.60
33105;DHT22;19476;51.448;6.674;2022-07-21T15:58:00;23.60;61.70